Cisco, California
Current Conditions -  °F | °C
As of 6:49 PM on Sunday 21 Dec 2014 (Local Time) from KBLU Reporting Station
Overcast Overcast  
Wind Chill: 44°   Ceiling: 2800
Heat Index: 46°   Visibility: 10mi
Dew Point: 43°   Wind: 6mph
Humidity: 87%   Direction: 350°N
Pressure: 30.33"   Gusts: NA
Location:  39.4261°N, 120.475°W
Report Text: KBLU 220249Z AUTO 35005KT 10SM FEW005 SCT010 OVC028 08/06 A3033 RMK AO2
Loading
Personal Weather Stations






























Interactive Weather Map New forecast layout! Learn more

10-Day Weather Forecast

Advertisements
Track Severe Weather on mobile